Time;durP1;ratioP1;P1;durP2;ratioP2;P2;SDS_P1;SDS_P2;PMS_P1;PMS_P2;Temp;Humidity;BMP_temperature;BMP_pressure;BME280_temperature;BME280_humidity;BME280_pressure;Samples;Min_cycle;Max_cycle;Signal;HPM_P1;HPM_P2
2022/11/24 00:00:52;;;;;;;15.18;7.32;;;;;;;;;;5061541;28;20047;-76
2022/11/24 00:03:18;;;;;;;16.98;7.57;;;;;;;;;;5063034;28;20037;-78
2022/11/24 00:05:44;;;;;;;16.38;7.50;;;;;;;;;;5074236;28;20059;-79
2022/11/24 00:08:11;;;;;;;19.88;7.90;;;;;;;;;;5062404;28;20049;-79
2022/11/24 00:10:37;;;;;;;17.92;8.55;;;;;;;;;;5077359;28;20045;-79
2022/11/24 00:13:03;;;;;;;18.80;8.13;;;;;;;;;;5062771;28;20067;-78
2022/11/24 00:15:29;;;;;;;19.13;7.60;;;;;;;;;;5067789;28;20068;-78
2022/11/24 00:17:55;;;;;;;18.40;8.88;;;;;;;;;;5044643;28;20436;-80
2022/11/24 00:20:21;;;;;;;22.95;8.00;;;;;;;;;;5085839;28;20052;-78
2022/11/24 00:22:48;;;;;;;20.02;7.82;;;;;;;;;;5077294;28;20089;-78
2022/11/24 00:25:14;;;;;;;19.25;7.30;;;;;;;;;;5046223;28;20105;-78
2022/11/24 00:27:40;;;;;;;19.98;8.15;;;;;;;;;;5065700;28;20048;-77
2022/11/24 00:30:06;;;;;;;23.27;8.20;;;;;;;;;;5071163;28;20040;-80
2022/11/24 00:32:32;;;;;;;20.42;8.10;;;;;;;;;;5068984;28;20040;-78
2022/11/24 00:34:58;;;;;;;23.23;8.07;;;;;;;;;;5067943;28;20142;-80
2022/11/24 00:37:24;;;;;;;20.77;7.80;;;;;;;;;;5072642;28;20040;-77
2022/11/24 00:39:50;;;;;;;27.05;7.15;;;;;;;;;;5053211;28;20115;-78
2022/11/24 00:42:17;;;;;;;18.52;6.88;;;;;;;;;;5053599;28;20132;-78
2022/11/24 00:44:43;;;;;;;17.65;6.78;;;;;;;;;;5086883;28;21722;-77
2022/11/24 00:47:09;;;;;;;21.08;6.90;;;;;;;;;;5065873;28;20119;-77
2022/11/24 00:49:35;;;;;;;24.25;7.95;;;;;;;;;;5071036;28;20087;-77
2022/11/24 00:52:01;;;;;;;24.50;6.47;;;;;;;;;;5063980;28;20056;-77
2022/11/24 00:54:27;;;;;;;19.63;6.75;;;;;;;;;;5044875;28;20040;-77
2022/11/24 00:56:53;;;;;;;16.25;6.57;;;;;;;;;;5046931;28;20068;-77
2022/11/24 00:59:19;;;;;;;18.90;5.80;;;;;;;;;;5062557;28;20459;-77
2022/11/24 01:01:45;;;;;;;21.10;6.35;;;;;;;;;;5056934;28;20507;-77
2022/11/24 01:04:11;;;;;;;18.00;6.05;;;;;;;;;;5050872;28;20131;-77
2022/11/24 01:06:37;;;;;;;24.15;6.45;;;;;;;;;;5069504;28;20056;-78
2022/11/24 01:09:04;;;;;;;18.60;6.53;;;;;;;;;;5072562;28;20052;-77
2022/11/24 01:12:00;;;;;;;19.17;6.22;;;;;;;;;;5069479;28;20059;-77
2022/11/24 01:14:21;;;;;;;14.73;5.25;;;;;;;;;;5079709;28;20048;-77
2022/11/24 01:16:47;;;;;;;23.83;5.95;;;;;;;;;;5075577;28;20481;-77
2022/11/24 01:19:14;;;;;;;17.23;5.78;;;;;;;;;;5077566;28;20514;-77
2022/11/24 01:21:40;;;;;;;16.77;6.05;;;;;;;;;;5073716;28;20047;-77
2022/11/24 01:24:06;;;;;;;21.90;6.03;;;;;;;;;;5049893;28;20064;-78
2022/11/24 01:26:32;;;;;;;21.30;6.78;;;;;;;;;;5057412;28;20036;-78
2022/11/24 01:28:58;;;;;;;19.20;5.93;;;;;;;;;;5044632;28;20539;-77
2022/11/24 01:31:27;;;;;;;19.42;6.28;;;;;;;;;;5072867;28;20040;-77
2022/11/24 01:33:53;;;;;;;18.63;5.95;;;;;;;;;;5067334;28;20033;-77
2022/11/24 01:36:20;;;;;;;16.58;5.15;;;;;;;;;;5088778;28;20127;-78
2022/11/24 01:38:46;;;;;;;16.55;4.50;;;;;;;;;;5069569;28;20072;-77
2022/11/24 01:41:13;;;;;;;15.35;4.70;;;;;;;;;;5046291;28;20055;-77
2022/11/24 01:43:40;;;;;;;15.32;5.75;;;;;;;;;;5071973;28;20102;-77
2022/11/24 01:46:13;;;;;;;15.75;4.75;;;;;;;;;;5079288;28;20094;-77
2022/11/24 01:48:42;;;;;;;10.85;4.40;;;;;;;;;;5046156;28;20411;-77
2022/11/24 01:51:17;;;;;;;13.90;4.10;;;;;;;;;;5046435;28;20098;-77
2022/11/24 01:53:45;;;;;;;15.68;4.25;;;;;;;;;;5046650;28;20051;-77
2022/11/24 01:56:12;;;;;;;16.40;4.63;;;;;;;;;;5067178;28;20066;-77
2022/11/24 01:58:40;;;;;;;12.75;4.10;;;;;;;;;;5061948;28;20044;-77
2022/11/24 02:01:06;;;;;;;19.70;5.05;;;;;;;;;;5064290;28;20048;-77
2022/11/24 02:03:34;;;;;;;19.23;5.20;;;;;;;;;;5063603;28;20087;-77
2022/11/24 02:06:18;;;;;;;15.23;5.15;;;;;;;;;;5082035;28;20040;-77
2022/11/24 02:08:44;;;;;;;16.17;4.30;;;;;;;;;;5077366;28;20577;-77
2022/11/24 02:11:10;;;;;;;15.77;5.38;;;;;;;;;;5061147;28;20032;-77
2022/11/24 02:13:37;;;;;;;18.58;5.05;;;;;;;;;;5082599;28;20040;-77
2022/11/24 02:16:05;;;;;;;18.50;5.70;;;;;;;;;;5078127;28;20045;-77
2022/11/24 02:18:34;;;;;;;16.42;4.45;;;;;;;;;;5059455;28;20044;-77
2022/11/24 02:21:00;;;;;;;13.90;4.00;;;;;;;;;;5052217;28;20469;-77
2022/11/24 02:23:34;;;;;;;12.45;4.43;;;;;;;;;;5069080;28;20048;-77
2022/11/24 02:26:07;;;;;;;14.60;4.43;;;;;;;;;;5067608;28;20037;-76
2022/11/24 02:28:39;;;;;;;14.67;5.07;;;;;;;;;;5069384;28;20106;-77
2022/11/24 02:31:05;;;;;;;16.23;4.57;;;;;;;;;;5067547;28;20057;-77
2022/11/24 02:33:32;;;;;;;13.85;4.93;;;;;;;;;;5076723;28;20044;-77
2022/11/24 02:35:58;;;;;;;17.45;4.75;;;;;;;;;;5069780;28;20681;-77
2022/11/24 02:38:34;;;;;;;11.77;4.10;;;;;;;;;;5073186;28;20523;-77
2022/11/24 02:41:03;;;;;;;20.90;4.18;;;;;;;;;;5082266;28;20135;-77
2022/11/24 02:43:31;;;;;;;17.92;4.85;;;;;;;;;;5051210;28;20055;-78
2022/11/24 02:45:57;;;;;;;17.42;4.07;;;;;;;;;;5061122;28;20071;-77
2022/11/24 02:48:23;;;;;;;13.15;3.80;;;;;;;;;;5065801;28;20032;-77
2022/11/24 02:50:49;;;;;;;18.38;5.47;;;;;;;;;;5057650;28;20055;-77
2022/11/24 02:53:15;;;;;;;12.55;4.10;;;;;;;;;;5065196;28;20052;-77
2022/11/24 02:55:41;;;;;;;17.13;5.07;;;;;;;;;;5075269;28;20155;-77
2022/11/24 02:58:08;;;;;;;12.07;4.55;;;;;;;;;;5066759;28;20123;-77
2022/11/24 03:00:34;;;;;;;16.63;4.80;;;;;;;;;;5049903;28;20047;-78
2022/11/24 03:03:00;;;;;;;14.98;4.47;;;;;;;;;;5052257;28;20056;-77
2022/11/24 03:05:26;;;;;;;14.18;4.78;;;;;;;;;;5067986;28;20043;-77
2022/11/24 03:07:52;;;;;;;16.42;4.40;;;;;;;;;;5050537;28;20048;-77
2022/11/24 03:10:18;;;;;;;14.50;3.83;;;;;;;;;;5067544;28;20041;-77
2022/11/24 03:12:44;;;;;;;13.68;4.78;;;;;;;;;;5067330;28;20116;-78
2022/11/24 03:15:10;;;;;;;15.57;4.85;;;;;;;;;;5049944;28;20040;-79
2022/11/24 03:17:36;;;;;;;16.67;4.88;;;;;;;;;;5080820;28;20059;-78
2022/11/24 03:20:02;;;;;;;15.30;4.72;;;;;;;;;;5071316;28;20044;-78
2022/11/24 03:22:28;;;;;;;12.38;4.57;;;;;;;;;;5051595;28;20041;-78
2022/11/24 03:24:58;;;;;;;14.20;4.90;;;;;;;;;;5070302;28;20044;-78
2022/11/24 03:27:24;;;;;;;17.05;4.88;;;;;;;;;;5068893;28;20036;-78
2022/11/24 03:29:50;;;;;;;14.43;4.22;;;;;;;;;;5073254;28;20089;-78
2022/11/24 03:32:16;;;;;;;19.48;4.95;;;;;;;;;;5074013;28;20078;-79
2022/11/24 03:34:42;;;;;;;16.88;5.03;;;;;;;;;;5069220;28;20044;-78
2022/11/24 03:37:08;;;;;;;21.30;4.97;;;;;;;;;;5068517;28;20042;-78
2022/11/24 03:39:34;;;;;;;15.00;4.47;;;;;;;;;;5048761;28;20102;-78
2022/11/24 03:42:03;;;;;;;14.75;4.78;;;;;;;;;;5044566;28;20049;-78
2022/11/24 03:44:29;;;;;;;16.05;4.68;;;;;;;;;;5041589;28;20050;-78
2022/11/24 03:46:55;;;;;;;17.50;4.55;;;;;;;;;;5077246;28;20521;-78
2022/11/24 03:49:21;;;;;;;19.73;4.85;;;;;;;;;;5061439;28;20111;-78
2022/11/24 03:51:47;;;;;;;13.82;4.72;;;;;;;;;;5061257;28;20448;-78
2022/11/24 03:54:13;;;;;;;12.43;4.50;;;;;;;;;;5077256;28;20479;-77
2022/11/24 03:56:39;;;;;;;12.70;5.00;;;;;;;;;;5058473;28;20495;-78
2022/11/24 03:59:05;;;;;;;13.93;4.32;;;;;;;;;;5043754;28;20568;-78
2022/11/24 04:01:31;;;;;;;15.43;4.70;;;;;;;;;;5043071;28;20044;-78
2022/11/24 04:03:57;;;;;;;17.88;4.70;;;;;;;;;;5080557;28;20062;-77
2022/11/24 04:06:23;;;;;;;17.20;4.97;;;;;;;;;;5064831;28;20045;-78
2022/11/24 04:08:49;;;;;;;18.17;5.22;;;;;;;;;;5083852;28;20052;-78
2022/11/24 04:14:00;;;;;;;17.08;4.80;;;;;;;;;;5081657;28;20403;-78
2022/11/24 04:16:26;;;;;;;16.92;5.05;;;;;;;;;;5074831;28;20373;-78
2022/11/24 04:18:55;;;;;;;15.95;4.65;;;;;;;;;;5070670;28;20477;-77
2022/11/24 04:21:24;;;;;;;17.50;4.72;;;;;;;;;;5062183;28;20422;-78
2022/11/24 04:23:50;;;;;;;11.52;4.28;;;;;;;;;;5052540;28;20041;-78
2022/11/24 04:26:16;;;;;;;13.00;4.63;;;;;;;;;;5084721;28;20052;-78
2022/11/24 04:28:42;;;;;;;12.63;4.07;;;;;;;;;;5052770;28;20411;-77
2022/11/24 04:31:08;;;;;;;15.25;4.75;;;;;;;;;;5048620;28;20048;-78
2022/11/24 04:33:34;;;;;;;15.35;4.85;;;;;;;;;;5085382;28;20074;-78
2022/11/24 04:36:00;;;;;;;14.63;4.05;;;;;;;;;;5087969;28;20102;-77
2022/11/24 04:38:26;;;;;;;16.13;3.90;;;;;;;;;;5050458;28;20066;-77
2022/11/24 04:40:52;;;;;;;14.48;4.10;;;;;;;;;;5083625;28;20052;-77
2022/11/24 04:43:20;;;;;;;13.18;4.13;;;;;;;;;;5052437;28;20048;-78
2022/11/24 04:45:51;;;;;;;17.40;4.20;;;;;;;;;;5070199;28;20110;-77
2022/11/24 04:48:17;;;;;;;13.15;4.07;;;;;;;;;;5071918;28;20040;-77
2022/11/24 04:50:43;;;;;;;14.13;3.78;;;;;;;;;;5044843;28;20048;-77
2022/11/24 04:53:09;;;;;;;13.35;3.72;;;;;;;;;;5055642;28;20040;-78
2022/11/24 04:55:37;;;;;;;14.63;3.90;;;;;;;;;;5083607;28;20047;-78
2022/11/24 04:58:03;;;;;;;12.57;4.28;;;;;;;;;;5047274;28;20059;-77
2022/11/24 05:00:29;;;;;;;11.77;3.60;;;;;;;;;;5062118;28;20049;-77
2022/11/24 05:02:55;;;;;;;10.35;3.63;;;;;;;;;;5083673;28;20400;-77
2022/11/24 05:05:21;;;;;;;12.95;3.88;;;;;;;;;;5048351;28;20048;-77
2022/11/24 05:07:47;;;;;;;16.98;4.32;;;;;;;;;;5085965;28;20403;-78
2022/11/24 05:12:58;;;;;;;13.55;3.67;;;;;;;;;;5072432;28;20049;-77
2022/11/24 05:15:24;;;;;;;13.57;3.25;;;;;;;;;;5078948;28;20396;-78
2022/11/24 05:17:50;;;;;;;17.35;3.58;;;;;;;;;;5072623;28;20048;-78
2022/11/24 05:20:17;;;;;;;12.07;3.25;;;;;;;;;;5067983;28;20036;-78
2022/11/24 05:22:43;;;;;;;14.05;3.40;;;;;;;;;;5074163;28;20045;-78
2022/11/24 05:25:09;;;;;;;13.23;3.65;;;;;;;;;;5050304;28;20091;-79
2022/11/24 05:27:35;;;;;;;12.25;3.78;;;;;;;;;;5069937;28;20053;-79
2022/11/24 05:30:01;;;;;;;13.90;3.78;;;;;;;;;;5075831;28;20037;-79
2022/11/24 05:32:27;;;;;;;16.00;3.92;;;;;;;;;;5067385;28;20036;-79
2022/11/24 05:34:53;;;;;;;14.80;3.85;;;;;;;;;;5069873;28;20051;-78
2022/11/24 05:37:20;;;;;;;15.90;3.65;;;;;;;;;;5070149;28;20044;-79
2022/11/24 05:39:46;;;;;;;19.15;3.67;;;;;;;;;;5083313;28;20155;-79
2022/11/24 05:44:56;;;;;;;16.80;3.75;;;;;;;;;;5078940;28;20049;-78
2022/11/24 05:47:23;;;;;;;15.48;3.85;;;;;;;;;;5042506;28;21583;-79
2022/11/24 05:49:49;;;;;;;14.10;3.25;;;;;;;;;;5078366;28;20045;-78
2022/11/24 05:52:18;;;;;;;16.38;3.90;;;;;;;;;;5051597;28;20089;-78
2022/11/24 05:54:44;;;;;;;13.32;3.17;;;;;;;;;;5042497;28;20379;-78
2022/11/24 05:57:10;;;;;;;15.45;3.60;;;;;;;;;;5041963;28;20122;-78
2022/11/24 05:59:36;;;;;;;21.65;4.05;;;;;;;;;;5044675;28;21695;-78
2022/11/24 06:02:02;;;;;;;12.23;3.67;;;;;;;;;;5040726;28;20080;-79
2022/11/24 06:04:28;;;;;;;14.60;3.65;;;;;;;;;;5077716;28;20048;-79
2022/11/24 06:06:54;;;;;;;11.30;3.72;;;;;;;;;;5042593;28;20107;-79
2022/11/24 06:09:20;;;;;;;11.82;3.85;;;;;;;;;;5052249;28;20688;-79
2022/11/24 06:11:49;;;;;;;14.82;4.05;;;;;;;;;;5049076;28;20127;-79
2022/11/24 06:14:15;;;;;;;12.40;3.38;;;;;;;;;;5051596;28;20055;-79
2022/11/24 06:16:41;;;;;;;13.88;3.90;;;;;;;;;;5047866;28;20151;-78
2022/11/24 06:19:09;;;;;;;13.43;3.70;;;;;;;;;;5047485;28;20087;-78
2022/11/24 06:21:35;;;;;;;29.85;7.78;;;;;;;;;;5048475;28;20032;-78
2022/11/24 06:24:01;;;;;;;22.65;4.15;;;;;;;;;;5078901;28;20091;-79
2022/11/24 06:26:27;;;;;;;16.40;3.90;;;;;;;;;;5049691;28;20036;-79
2022/11/24 06:28:53;;;;;;;17.42;4.20;;;;;;;;;;5039348;28;20122;-77
2022/11/24 06:31:19;;;;;;;14.57;4.18;;;;;;;;;;5040992;28;20048;-78
2022/11/24 06:33:45;;;;;;;12.27;3.17;;;;;;;;;;5041956;28;20037;-78
2022/11/24 06:36:13;;;;;;;13.43;3.40;;;;;;;;;;5046313;28;20119;-78
2022/11/24 06:38:38;;;;;;;17.38;3.58;;;;;;;;;;5051351;28;20845;-78
2022/11/24 06:41:06;;;;;;;16.80;3.63;;;;;;;;;;5071757;28;20044;-77
2022/11/24 06:43:33;;;;;;;26.42;4.53;;;;;;;;;;5076196;28;20045;-77
2022/11/24 06:45:59;;;;;;;23.23;3.67;;;;;;;;;;5083119;28;20040;-77
2022/11/24 06:48:25;;;;;;;21.80;4.18;;;;;;;;;;5068876;28;20045;-78
2022/11/24 06:50:51;;;;;;;15.85;3.60;;;;;;;;;;5081826;28;20048;-78
2022/11/24 06:53:17;;;;;;;11.18;2.78;;;;;;;;;;5056434;28;20526;-78
2022/11/24 06:55:44;;;;;;;19.08;3.72;;;;;;;;;;5067360;28;20048;-77
2022/11/24 06:58:10;;;;;;;18.58;3.78;;;;;;;;;;5083979;28;20052;-78
2022/11/24 07:00:37;;;;;;;15.95;3.70;;;;;;;;;;5044150;28;20052;-78
2022/11/24 07:03:03;;;;;;;15.80;4.32;;;;;;;;;;5063888;28;20491;-77
2022/11/24 07:05:29;;;;;;;13.40;3.85;;;;;;;;;;5052523;28;20048;-77
2022/11/24 07:07:55;;;;;;;16.98;3.72;;;;;;;;;;5081862;28;20409;-77
2022/11/24 07:10:21;;;;;;;15.00;3.22;;;;;;;;;;5083601;28;20051;-77
2022/11/24 07:12:47;;;;;;;14.95;3.05;;;;;;;;;;5072776;28;20126;-78
2022/11/24 07:15:13;;;;;;;13.68;3.22;;;;;;;;;;5075664;28;20047;-78
2022/11/24 07:17:40;;;;;;;9.90;3.10;;;;;;;;;;5055219;28;20060;-78
2022/11/24 07:20:07;;;;;;;11.27;3.15;;;;;;;;;;5053002;28;20074;-76
2022/11/24 07:22:33;;;;;;;11.45;3.00;;;;;;;;;;5079469;28;20135;-78
2022/11/24 07:24:59;;;;;;;11.57;2.97;;;;;;;;;;5054061;28;20056;-78
2022/11/24 07:27:29;;;;;;;12.15;3.33;;;;;;;;;;5077765;28;20127;-77
2022/11/24 07:29:55;;;;;;;10.85;3.38;;;;;;;;;;5049376;28;20044;-77
2022/11/24 07:32:21;;;;;;;8.88;2.90;;;;;;;;;;5067525;28;20045;-77
2022/11/24 07:34:47;;;;;;;13.13;3.00;;;;;;;;;;5052528;28;20055;-77
2022/11/24 07:37:13;;;;;;;9.73;2.80;;;;;;;;;;5051537;28;20036;-77
2022/11/24 07:39:39;;;;;;;11.05;3.40;;;;;;;;;;5069725;28;20056;-77
2022/11/24 07:42:07;;;;;;;12.13;3.63;;;;;;;;;;5069517;28;20041;-77
2022/11/24 07:44:33;;;;;;;9.30;3.70;;;;;;;;;;5068282;28;20483;-77
2022/11/24 07:46:59;;;;;;;16.10;4.43;;;;;;;;;;5084453;28;20559;-77
2022/11/24 07:49:25;;;;;;;10.55;4.03;;;;;;;;;;5084278;28;20171;-77
2022/11/24 07:51:51;;;;;;;11.68;3.90;;;;;;;;;;5066271;28;20044;-77
2022/11/24 07:54:17;;;;;;;9.90;3.17;;;;;;;;;;5046297;28;20052;-77
2022/11/24 07:56:43;;;;;;;10.48;3.72;;;;;;;;;;5071673;28;20036;-77
2022/11/24 07:59:09;;;;;;;11.82;4.13;;;;;;;;;;5084697;28;20396;-76
2022/11/24 08:01:35;;;;;;;13.52;3.30;;;;;;;;;;5047756;28;20052;-76
2022/11/24 08:04:01;;;;;;;10.65;3.60;;;;;;;;;;5054611;28;20503;-77
2022/11/24 08:06:28;;;;;;;11.98;3.50;;;;;;;;;;5074070;28;20046;-76
2022/11/24 08:08:54;;;;;;;13.95;3.50;;;;;;;;;;5057610;28;20492;-77
2022/11/24 08:11:20;;;;;;;9.27;2.90;;;;;;;;;;5083199;28;20037;-76
2022/11/24 08:13:46;;;;;;;7.95;3.22;;;;;;;;;;5043615;28;20453;-77
2022/11/24 08:16:14;;;;;;;11.93;3.10;;;;;;;;;;5068019;28;20148;-76
2022/11/24 08:18:41;;;;;;;11.30;2.85;;;;;;;;;;5044754;28;20048;-77
2022/11/24 08:21:07;;;;;;;8.50;2.85;;;;;;;;;;5067636;28;20044;-76
2022/11/24 08:23:34;;;;;;;12.45;3.47;;;;;;;;;;5052651;28;20044;-76
2022/11/24 08:26:04;;;;;;;14.60;3.08;;;;;;;;;;5066722;28;20047;-76
2022/11/24 08:28:32;;;;;;;10.30;3.00;;;;;;;;;;5040696;28;20049;-76
2022/11/24 08:31:06;;;;;;;9.52;3.40;;;;;;;;;;5067854;28;20045;-76
2022/11/24 08:33:32;;;;;;;8.02;3.30;;;;;;;;;;5070007;28;20046;-75
2022/11/24 08:36:14;;;;;;;7.80;2.90;;;;;;;;;;5067871;28;20053;-76
2022/11/24 08:38:40;;;;;;;9.18;2.78;;;;;;;;;;5051362;28;20139;-76
2022/11/24 08:41:08;;;;;;;11.20;3.33;;;;;;;;;;5070395;28;20131;-76
2022/11/24 08:43:34;;;;;;;9.88;3.00;;;;;;;;;;5082362;28;20040;-76
2022/11/24 08:46:01;;;;;;;8.98;2.53;;;;;;;;;;5062151;28;20045;-75
2022/11/24 08:48:27;;;;;;;8.55;2.60;;;;;;;;;;5085918;28;20045;-76
2022/11/24 08:50:53;;;;;;;13.95;2.92;;;;;;;;;;5085463;28;20044;-75
2022/11/24 08:53:19;;;;;;;7.90;2.80;;;;;;;;;;5048888;28;20082;-76
2022/11/24 08:55:45;;;;;;;13.48;3.85;;;;;;;;;;5085205;28;20054;-76
2022/11/24 08:58:11;;;;;;;11.25;3.53;;;;;;;;;;5073835;28;20040;-76
2022/11/24 09:00:37;;;;;;;14.57;3.25;;;;;;;;;;5072461;28;20045;-76
2022/11/24 09:03:03;;;;;;;9.48;2.65;;;;;;;;;;5054226;28;20036;-76
2022/11/24 09:05:29;;;;;;;11.30;3.10;;;;;;;;;;5088722;28;20037;-76
2022/11/24 09:07:55;;;;;;;10.65;2.83;;;;;;;;;;5087514;28;20045;-76
2022/11/24 09:10:21;;;;;;;13.82;2.90;;;;;;;;;;5072353;28;20497;-76
2022/11/24 09:12:47;;;;;;;11.57;2.70;;;;;;;;;;5086185;28;20124;-76
2022/11/24 09:15:15;;;;;;;9.73;2.50;;;;;;;;;;5052378;28;20087;-76
2022/11/24 09:17:41;;;;;;;10.27;2.67;;;;;;;;;;5083127;28;20519;-76
2022/11/24 09:20:07;;;;;;;7.38;3.13;;;;;;;;;;5054749;28;20154;-76
2022/11/24 09:22:33;;;;;;;8.27;2.90;;;;;;;;;;5073306;28;20080;-76
2022/11/24 09:24:59;;;;;;;9.27;3.15;;;;;;;;;;5082737;28;20053;-76
2022/11/24 09:27:25;;;;;;;7.95;2.50;;;;;;;;;;5055916;28;20051;-76
2022/11/24 09:29:51;;;;;;;11.10;2.97;;;;;;;;;;5074056;28;20098;-76
2022/11/24 09:32:17;;;;;;;12.55;3.35;;;;;;;;;;5087379;28;20051;-76
2022/11/24 09:34:43;;;;;;;9.55;2.75;;;;;;;;;;5054495;28;20041;-76
2022/11/24 09:37:09;;;;;;;9.10;2.63;;;;;;;;;;5087345;28;20051;-76
2022/11/24 09:39:38;;;;;;;6.70;2.67;;;;;;;;;;5087311;28;20044;-76
2022/11/24 09:42:10;;;;;;;7.90;3.33;;;;;;;;;;5072270;28;20037;-76
2022/11/24 09:44:36;;;;;;;9.57;3.17;;;;;;;;;;5073389;28;20048;-76
2022/11/24 09:47:08;;;;;;;10.52;3.25;;;;;;;;;;5070612;28;20037;-76
2022/11/24 09:49:34;;;;;;;12.35;3.30;;;;;;;;;;5053757;28;20179;-76
2022/11/24 09:52:02;;;;;;;8.65;3.15;;;;;;;;;;5086913;28;20148;-76
2022/11/24 09:54:29;;;;;;;11.02;3.20;;;;;;;;;;5089252;28;20391;-76
2022/11/24 09:56:58;;;;;;;11.35;3.33;;;;;;;;;;5053757;28;20048;-76
2022/11/24 09:59:26;;;;;;;9.70;2.80;;;;;;;;;;5071900;28;20051;-76
2022/11/24 10:01:53;;;;;;;8.60;2.85;;;;;;;;;;5071949;28;20036;-75
2022/11/24 10:04:21;;;;;;;11.25;3.25;;;;;;;;;;5083902;28;20091;-76
2022/11/24 10:07:00;;;;;;;10.57;3.10;;;;;;;;;;5083596;28;20052;-76
2022/11/24 10:09:25;;;;;;;9.60;3.58;;;;;;;;;;5052594;28;20049;-76
2022/11/24 10:12:04;;;;;;;7.68;3.22;;;;;;;;;;5054139;28;20373;-76
2022/11/24 10:14:49;;;;;;;12.50;4.00;;;;;;;;;;5054084;28;20400;-76
2022/11/24 10:17:15;;;;;;;9.40;3.50;;;;;;;;;;5052726;28;20492;-76
2022/11/24 10:19:44;;;;;;;8.27;3.58;;;;;;;;;;5089267;28;20064;-76
2022/11/24 10:22:23;;;;;;;8.55;3.70;;;;;;;;;;5071566;28;20044;-76
2022/11/24 10:24:51;;;;;;;9.30;3.90;;;;;;;;;;5066701;28;20051;-76
2022/11/24 10:27:18;;;;;;;10.48;4.10;;;;;;;;;;5064089;28;20032;-76
2022/11/24 10:29:48;;;;;;;11.02;3.78;;;;;;;;;;5034890;28;20101;-76
2022/11/24 10:32:17;;;;;;;10.20;3.80;;;;;;;;;;5048546;28;20049;-76
2022/11/24 10:34:43;;;;;;;9.45;3.70;;;;;;;;;;5054260;28;20048;-76
2022/11/24 10:37:22;;;;;;;8.68;3.30;;;;;;;;;;5084514;28;20135;-75
2022/11/24 10:39:51;;;;;;;9.57;3.88;;;;;;;;;;5052194;28;20484;-78
2022/11/24 10:42:26;;;;;;;12.00;4.25;;;;;;;;;;5074496;28;20553;-75
2022/11/24 10:45:13;;;;;;;7.75;3.83;;;;;;;;;;5053812;28;20047;-76
2022/11/24 10:47:40;;;;;;;11.35;4.63;;;;;;;;;;5070155;28;20048;-75
2022/11/24 10:50:14;;;;;;;10.57;3.92;;;;;;;;;;5068816;28;20047;-76
2022/11/24 10:52:42;;;;;;;10.93;4.47;;;;;;;;;;5084891;28;20052;-76
2022/11/24 10:55:09;;;;;;;9.57;4.07;;;;;;;;;;5085174;28;20735;-76
2022/11/24 10:57:36;;;;;;;12.27;3.92;;;;;;;;;;5070720;28;20047;-76
2022/11/24 11:00:04;;;;;;;9.13;3.90;;;;;;;;;;5049494;28;20040;-76
2022/11/24 11:02:34;;;;;;;11.80;4.32;;;;;;;;;;5050528;28;20099;-76
2022/11/24 11:05:20;;;;;;;14.88;3.92;;;;;;;;;;5052805;28;20053;-76
2022/11/24 11:07:46;;;;;;;12.50;3.50;;;;;;;;;;5087248;28;20126;-76
2022/11/24 11:10:25;;;;;;;8.95;3.63;;;;;;;;;;5086307;28;20048;-76
2022/11/24 11:12:51;;;;;;;8.68;4.25;;;;;;;;;;5070266;28;20040;-76
2022/11/24 11:15:35;;;;;;;11.23;3.92;;;;;;;;;;5083887;28;20052;-76
2022/11/24 11:18:01;;;;;;;11.15;4.55;;;;;;;;;;5084795;28;20480;-76
2022/11/24 11:20:29;;;;;;;12.48;3.75;;;;;;;;;;5069017;28;20048;-76
2022/11/24 11:22:56;;;;;;;13.50;4.20;;;;;;;;;;5086730;28;20063;-77
2022/11/24 11:25:32;;;;;;;8.05;4.03;;;;;;;;;;5070310;28;20114;-77
2022/11/24 11:28:17;;;;;;;9.10;4.07;;;;;;;;;;5074571;28;20500;-77
2022/11/24 11:30:58;;;;;;;9.38;3.53;;;;;;;;;;5067575;28;20435;-77
2022/11/24 11:33:27;;;;;;;8.35;4.20;;;;;;;;;;5052745;28;20036;-77
2022/11/24 11:35:53;;;;;;;9.93;3.65;;;;;;;;;;5067955;28;20041;-77
2022/11/24 11:38:19;;;;;;;10.90;4.22;;;;;;;;;;5051687;28;20048;-77
2022/11/24 11:40:48;;;;;;;12.90;4.53;;;;;;;;;;5086788;28;20054;-77
2022/11/24 11:43:29;;;;;;;14.35;4.57;;;;;;;;;;5086474;28;20049;-77
2022/11/24 11:46:09;;;;;;;14.40;4.75;;;;;;;;;;5058418;28;20047;-77
2022/11/24 11:48:36;;;;;;;10.60;4.28;;;;;;;;;;5072757;28;20059;-77
2022/11/24 11:51:10;;;;;;;9.88;3.90;;;;;;;;;;5051763;28;20051;-77
2022/11/24 11:53:53;;;;;;;12.45;4.30;;;;;;;;;;5070811;28;20032;-77
2022/11/24 11:56:30;;;;;;;12.77;4.53;;;;;;;;;;5084023;28;20040;-76
2022/11/24 11:58:59;;;;;;;15.13;4.72;;;;;;;;;;5083295;28;20121;-77
2022/11/24 12:01:34;;;;;;;12.80;4.78;;;;;;;;;;5046681;28;20056;-78
2022/11/24 12:04:03;;;;;;;11.05;4.93;;;;;;;;;;5062023;28;20028;-78
2022/11/24 12:06:38;;;;;;;12.70;4.57;;;;;;;;;;5083072;28;20059;-77
2022/11/24 12:09:23;;;;;;;11.52;4.40;;;;;;;;;;5047112;28;22049;-77
2022/11/24 12:12:04;;;;;;;14.68;4.47;;;;;;;;;;5051103;28;20048;-77
2022/11/24 12:14:30;;;;;;;10.73;4.45;;;;;;;;;;5048504;28;20392;-77
2022/11/24 12:17:11;;;;;;;10.38;4.47;;;;;;;;;;5068210;28;20036;-77
2022/11/24 12:19:52;;;;;;;10.50;4.55;;;;;;;;;;5069760;28;20036;-77
2022/11/24 12:22:23;;;;;;;12.70;4.60;;;;;;;;;;5053026;28;20514;-77
2022/11/24 12:24:55;;;;;;;11.88;4.05;;;;;;;;;;5071545;28;20438;-77
2022/11/24 12:27:48;;;;;;;10.55;3.90;;;;;;;;;;5054656;28;20041;-77
2022/11/24 12:30:16;;;;;;;11.35;4.50;;;;;;;;;;5055733;28;20047;-77
2022/11/24 12:32:57;;;;;;;11.85;4.65;;;;;;;;;;5065740;28;20044;-77
2022/11/24 12:35:27;;;;;;;12.13;4.28;;;;;;;;;;5088335;28;20479;-78
2022/11/24 12:38:02;;;;;;;13.50;4.18;;;;;;;;;;5070076;28;20049;-77
2022/11/24 12:40:31;;;;;;;11.32;3.67;;;;;;;;;;5070034;28;20411;-77
2022/11/24 12:43:10;;;;;;;9.57;4.20;;;;;;;;;;5050325;28;20044;-76
2022/11/24 12:45:49;;;;;;;9.48;3.95;;;;;;;;;;5054838;28;20080;-78
2022/11/24 12:48:15;;;;;;;9.05;3.90;;;;;;;;;;5067992;28;20483;-77
2022/11/24 12:50:43;;;;;;;13.18;4.00;;;;;;;;;;5073789;28;20483;-76
2022/11/24 12:53:18;;;;;;;11.57;3.90;;;;;;;;;;5080814;28;20123;-77
2022/11/24 12:55:45;;;;;;;14.48;3.83;;;;;;;;;;5071047;28;20399;-77
2022/11/24 12:58:11;;;;;;;10.35;4.10;;;;;;;;;;5073246;28;20040;-75
2022/11/24 13:01:00;;;;;;;10.48;3.83;;;;;;;;;;5071323;28;20044;-75
2022/11/24 13:03:32;;;;;;;12.75;3.80;;;;;;;;;;5062113;28;20048;-75
2022/11/24 13:06:10;;;;;;;10.07;3.20;;;;;;;;;;5071544;28;20040;-75
2022/11/24 13:08:39;;;;;;;10.05;3.58;;;;;;;;;;5050567;28;20052;-75
2022/11/24 13:11:20;;;;;;;10.30;3.47;;;;;;;;;;5073518;28;20044;-75
2022/11/24 13:13:58;;;;;;;9.82;3.63;;;;;;;;;;5084018;28;20045;-76
2022/11/24 13:16:25;;;;;;;9.25;3.42;;;;;;;;;;5073064;28;20052;-75
2022/11/24 13:19:06;;;;;;;11.95;4.15;;;;;;;;;;5072716;28;20040;-74
2022/11/24 13:21:44;;;;;;;10.68;4.65;;;;;;;;;;5052433;28;20127;-75
2022/11/24 13:24:16;;;;;;;9.35;3.55;;;;;;;;;;5051957;28;20044;-75
2022/11/24 13:26:42;;;;;;;11.82;3.88;;;;;;;;;;5075746;28;20051;-75
2022/11/24 13:29:27;;;;;;;13.00;3.67;;;;;;;;;;5088821;28;20393;-75
2022/11/24 13:32:02;;;;;;;12.18;3.38;;;;;;;;;;5084379;28;20088;-75
2022/11/24 13:34:48;;;;;;;10.85;4.18;;;;;;;;;;5087450;28;20505;-75
2022/11/24 13:37:24;;;;;;;12.27;3.50;;;;;;;;;;5067202;28;20083;-75
2022/11/24 13:39:56;;;;;;;10.52;3.47;;;;;;;;;;5072210;28;20092;-75
2022/11/24 13:42:24;;;;;;;14.48;3.75;;;;;;;;;;5086734;28;20074;-77
2022/11/24 13:44:50;;;;;;;16.50;3.58;;;;;;;;;;5073155;28;20040;-77
2022/11/24 13:47:35;;;;;;;13.45;4.30;;;;;;;;;;5086834;28;20052;-77
2022/11/24 13:50:28;;;;;;;15.95;3.88;;;;;;;;;;5055417;28;20056;-77
2022/11/24 13:53:06;;;;;;;10.38;3.47;;;;;;;;;;5070147;28;20098;-77
2022/11/24 13:55:34;;;;;;;12.98;3.40;;;;;;;;;;5053116;28;20153;-78
2022/11/24 13:58:20;;;;;;;11.73;3.88;;;;;;;;;;5087119;28;20075;-78
2022/11/24 14:00:55;;;;;;;13.20;3.65;;;;;;;;;;5049875;28;20084;-75
2022/11/24 14:03:32;;;;;;;13.70;3.78;;;;;;;;;;5072452;28;20481;-75
2022/11/24 14:05:58;;;;;;;11.07;3.33;;;;;;;;;;5085109;28;20058;-75
2022/11/24 14:08:26;;;;;;;13.35;4.13;;;;;;;;;;5072555;28;20051;-75
2022/11/24 14:10:53;;;;;;;10.48;3.38;;;;;;;;;;5055243;28;20097;-75
2022/11/24 14:13:22;;;;;;;11.95;3.30;;;;;;;;;;5071103;28;20036;-75
2022/11/24 14:16:07;;;;;;;10.57;3.58;;;;;;;;;;5088187;28;20098;-75
2022/11/24 14:18:34;;;;;;;9.80;3.35;;;;;;;;;;5054106;28;20484;-75
2022/11/24 14:21:01;;;;;;;15.15;3.83;;;;;;;;;;5069697;28;20048;-75
2022/11/24 14:23:27;;;;;;;13.40;3.30;;;;;;;;;;5054019;28;20117;-75
2022/11/24 14:25:53;;;;;;;14.30;4.07;;;;;;;;;;5072751;28;20040;-75
2022/11/24 14:28:28;;;;;;;11.63;3.97;;;;;;;;;;5086056;28;20407;-75
2022/11/24 14:31:08;;;;;;;12.70;3.38;;;;;;;;;;5053382;28;20040;-75
2022/11/24 14:33:34;;;;;;;11.70;3.88;;;;;;;;;;5069003;28;20048;-75
2022/11/24 14:36:00;;;;;;;14.93;4.38;;;;;;;;;;5039643;28;20381;-75
2022/11/24 14:38:26;;;;;;;13.20;3.80;;;;;;;;;;5068684;28;20476;-75
2022/11/24 14:40:53;;;;;;;11.90;3.80;;;;;;;;;;5051879;28;20080;-75
2022/11/24 14:43:25;;;;;;;14.80;3.90;;;;;;;;;;5084956;28;20549;-75
2022/11/24 14:45:55;;;;;;;9.43;3.63;;;;;;;;;;5069758;28;20120;-75
2022/11/24 14:48:30;;;;;;;12.65;4.60;;;;;;;;;;5081163;28;20087;-75